sensor_id;sensor_type;location;lat;lon;timestamp;temperature;humidity
9790;DHT22;4934;50.852;8.098;2023-08-06T00:01:45;14.10;99.90
9790;DHT22;4934;50.852;8.098;2023-08-06T00:04:10;14.10;99.90
9790;DHT22;4934;50.852;8.098;2023-08-06T00:06:36;14.10;99.90
9790;DHT22;4934;50.852;8.098;2023-08-06T00:09:01;14.10;99.90
9790;DHT22;4934;50.852;8.098;2023-08-06T00:11:27;14.10;99.90
9790;DHT22;4934;50.852;8.098;2023-08-06T00:13:52;14.10;99.90
9790;DHT22;4934;50.852;8.098;2023-08-06T00:16:18;14.10;99.90
9790;DHT22;4934;50.852;8.098;2023-08-06T00:18:43;14.10;99.90
9790;DHT22;4934;50.852;8.098;2023-08-06T00:21:09;14.00;99.90
9790;DHT22;4934;50.852;8.098;2023-08-06T00:23:34;14.00;99.90
9790;DHT22;4934;50.852;8.098;2023-08-06T00:25:59;14.10;99.90
9790;DHT22;4934;50.852;8.098;2023-08-06T00:28:25;14.10;99.90
9790;DHT22;4934;50.852;8.098;2023-08-06T00:30:53;14.10;99.90
9790;DHT22;4934;50.852;8.098;2023-08-06T00:33:20;14.20;99.90
9790;DHT22;4934;50.852;8.098;2023-08-06T00:35:45;14.20;99.90
9790;DHT22;4934;50.852;8.098;2023-08-06T00:38:12;14.20;99.90
9790;DHT22;4934;50.852;8.098;2023-08-06T00:40:37;14.00;99.90
9790;DHT22;4934;50.852;8.098;2023-08-06T00:43:03;14.00;99.90
9790;DHT22;4934;50.852;8.098;2023-08-06T00:45:28;14.10;99.90
9790;DHT22;4934;50.852;8.098;2023-08-06T00:47:55;14.10;99.90
9790;DHT22;4934;50.852;8.098;2023-08-06T00:50:21;14.10;99.90
9790;DHT22;4934;50.852;8.098;2023-08-06T00:52:50;14.00;99.90
9790;DHT22;4934;50.852;8.098;2023-08-06T00:55:16;14.00;99.90
9790;DHT22;4934;50.852;8.098;2023-08-06T00:57:42;14.00;99.90
9790;DHT22;4934;50.852;8.098;2023-08-06T01:00:07;14.10;99.90
9790;DHT22;4934;50.852;8.098;2023-08-06T01:02:33;14.10;99.90
9790;DHT22;4934;50.852;8.098;2023-08-06T01:04:58;14.10;99.90
9790;DHT22;4934;50.852;8.098;2023-08-06T01:07:37;14.10;99.90
9790;DHT22;4934;50.852;8.098;2023-08-06T01:17:29;14.10;99.90
9790;DHT22;4934;50.852;8.098;2023-08-06T01:19:55;14.10;99.90
9790;DHT22;4934;50.852;8.098;2023-08-06T01:22:20;14.20;99.90
9790;DHT22;4934;50.852;8.098;2023-08-06T01:24:46;14.20;99.90
9790;DHT22;4934;50.852;8.098;2023-08-06T01:27:36;14.10;99.90
9790;DHT22;4934;50.852;8.098;2023-08-06T01:30:02;14.10;99.90
9790;DHT22;4934;50.852;8.098;2023-08-06T01:32:29;14.10;99.90
9790;DHT22;4934;50.852;8.098;2023-08-06T01:34:57;14.10;99.90
9790;DHT22;4934;50.852;8.098;2023-08-06T01:37:24;14.10;99.90
9790;DHT22;4934;50.852;8.098;2023-08-06T01:39:50;14.10;99.90
9790;DHT22;4934;50.852;8.098;2023-08-06T01:42:15;14.10;99.90
9790;DHT22;4934;50.852;8.098;2023-08-06T01:44:41;14.20;99.90
9790;DHT22;4934;50.852;8.098;2023-08-06T01:47:06;14.20;99.90
9790;DHT22;4934;50.852;8.098;2023-08-06T01:49:32;14.10;99.90
9790;DHT22;4934;50.852;8.098;2023-08-06T01:51:57;14.10;99.90
9790;DHT22;4934;50.852;8.098;2023-08-06T01:54:23;14.10;99.90
9790;DHT22;4934;50.852;8.098;2023-08-06T01:56:48;14.10;99.90
9790;DHT22;4934;50.852;8.098;2023-08-06T01:59:13;14.10;99.90
9790;DHT22;4934;50.852;8.098;2023-08-06T02:01:39;14.00;99.90
9790;DHT22;4934;50.852;8.098;2023-08-06T02:04:04;14.10;99.90
9790;DHT22;4934;50.852;8.098;2023-08-06T02:06:30;14.00;99.90
9790;DHT22;4934;50.852;8.098;2023-08-06T02:08:55;14.00;99.90
9790;DHT22;4934;50.852;8.098;2023-08-06T02:11:21;14.00;99.90
9790;DHT22;4934;50.852;8.098;2023-08-06T02:13:46;14.10;99.90
9790;DHT22;4934;50.852;8.098;2023-08-06T02:16:12;14.10;99.90
9790;DHT22;4934;50.852;8.098;2023-08-06T02:18:37;14.10;99.90
9790;DHT22;4934;50.852;8.098;2023-08-06T02:21:03;14.10;99.90
9790;DHT22;4934;50.852;8.098;2023-08-06T02:23:28;14.10;99.90
9790;DHT22;4934;50.852;8.098;2023-08-06T02:26:01;14.10;99.90
9790;DHT22;4934;50.852;8.098;2023-08-06T02:28:27;14.10;99.90
9790;DHT22;4934;50.852;8.098;2023-08-06T02:30:52;14.20;99.90
9790;DHT22;4934;50.852;8.098;2023-08-06T02:33:18;14.20;99.90
9790;DHT22;4934;50.852;8.098;2023-08-06T02:35:43;14.10;99.90
9790;DHT22;4934;50.852;8.098;2023-08-06T02:38:09;14.00;99.90
9790;DHT22;4934;50.852;8.098;2023-08-06T02:40:34;14.10;99.90
9790;DHT22;4934;50.852;8.098;2023-08-06T02:43:00;14.20;99.90
9790;DHT22;4934;50.852;8.098;2023-08-06T02:45:25;14.20;99.90
9790;DHT22;4934;50.852;8.098;2023-08-06T02:47:51;14.10;99.90
9790;DHT22;4934;50.852;8.098;2023-08-06T02:50:16;14.20;99.90
9790;DHT22;4934;50.852;8.098;2023-08-06T02:52:42;14.10;99.90
9790;DHT22;4934;50.852;8.098;2023-08-06T02:55:07;14.10;99.90
9790;DHT22;4934;50.852;8.098;2023-08-06T02:57:33;14.10;99.90
9790;DHT22;4934;50.852;8.098;2023-08-06T02:59:58;14.20;99.90
9790;DHT22;4934;50.852;8.098;2023-08-06T03:02:24;14.20;99.90
9790;DHT22;4934;50.852;8.098;2023-08-06T03:04:49;14.10;99.90
9790;DHT22;4934;50.852;8.098;2023-08-06T03:07:15;14.20;99.90
9790;DHT22;4934;50.852;8.098;2023-08-06T03:09:40;14.20;99.90
9790;DHT22;4934;50.852;8.098;2023-08-06T03:12:06;14.20;99.90
9790;DHT22;4934;50.852;8.098;2023-08-06T03:14:31;14.10;99.90
9790;DHT22;4934;50.852;8.098;2023-08-06T03:16:57;14.20;99.90
9790;DHT22;4934;50.852;8.098;2023-08-06T03:19:22;14.20;99.90
9790;DHT22;4934;50.852;8.098;2023-08-06T03:21:48;14.20;99.90
9790;DHT22;4934;50.852;8.098;2023-08-06T03:24:13;14.30;99.90
9790;DHT22;4934;50.852;8.098;2023-08-06T03:26:39;14.30;99.90
9790;DHT22;4934;50.852;8.098;2023-08-06T03:29:04;14.20;99.90
9790;DHT22;4934;50.852;8.098;2023-08-06T03:31:30;14.20;99.90
9790;DHT22;4934;50.852;8.098;2023-08-06T03:33:55;14.20;99.90
9790;DHT22;4934;50.852;8.098;2023-08-06T03:36:21;14.10;99.90
9790;DHT22;4934;50.852;8.098;2023-08-06T03:38:47;14.10;99.90
9790;DHT22;4934;50.852;8.098;2023-08-06T03:41:12;14.10;99.90
9790;DHT22;4934;50.852;8.098;2023-08-06T03:43:38;14.20;99.90
9790;DHT22;4934;50.852;8.098;2023-08-06T03:46:03;14.20;99.90
9790;DHT22;4934;50.852;8.098;2023-08-06T03:48:29;14.20;99.90
9790;DHT22;4934;50.852;8.098;2023-08-06T03:50:54;14.20;99.90
9790;DHT22;4934;50.852;8.098;2023-08-06T03:53:19;14.10;99.90
9790;DHT22;4934;50.852;8.098;2023-08-06T03:55:45;14.20;99.90
9790;DHT22;4934;50.852;8.098;2023-08-06T03:58:10;14.10;99.90
9790;DHT22;4934;50.852;8.098;2023-08-06T04:00:36;14.10;99.90
9790;DHT22;4934;50.852;8.098;2023-08-06T04:03:01;14.10;99.90
9790;DHT22;4934;50.852;8.098;2023-08-06T04:05:27;14.20;99.90
9790;DHT22;4934;50.852;8.098;2023-08-06T04:07:52;14.30;99.90
9790;DHT22;4934;50.852;8.098;2023-08-06T04:10:18;14.20;99.90
9790;DHT22;4934;50.852;8.098;2023-08-06T04:12:43;14.20;99.90
9790;DHT22;4934;50.852;8.098;2023-08-06T04:15:09;14.20;99.90
9790;DHT22;4934;50.852;8.098;2023-08-06T04:17:34;14.10;99.90
9790;DHT22;4934;50.852;8.098;2023-08-06T04:20:00;14.10;99.90
9790;DHT22;4934;50.852;8.098;2023-08-06T04:22:25;14.00;99.90
9790;DHT22;4934;50.852;8.098;2023-08-06T04:24:51;14.00;99.90
9790;DHT22;4934;50.852;8.098;2023-08-06T04:27:17;14.00;99.90
9790;DHT22;4934;50.852;8.098;2023-08-06T04:29:42;14.00;99.90
9790;DHT22;4934;50.852;8.098;2023-08-06T04:32:08;14.00;99.90
9790;DHT22;4934;50.852;8.098;2023-08-06T04:34:34;14.00;99.90
9790;DHT22;4934;50.852;8.098;2023-08-06T04:37:00;14.10;99.90
9790;DHT22;4934;50.852;8.098;2023-08-06T04:39:26;14.10;99.90
9790;DHT22;4934;50.852;8.098;2023-08-06T04:41:52;14.10;99.90
9790;DHT22;4934;50.852;8.098;2023-08-06T04:44:17;14.00;99.90
9790;DHT22;4934;50.852;8.098;2023-08-06T04:46:43;14.00;99.90
9790;DHT22;4934;50.852;8.098;2023-08-06T04:49:08;14.00;99.90
9790;DHT22;4934;50.852;8.098;2023-08-06T04:51:34;14.10;99.90
9790;DHT22;4934;50.852;8.098;2023-08-06T04:53:59;14.10;99.90
9790;DHT22;4934;50.852;8.098;2023-08-06T04:56:25;14.10;99.90
9790;DHT22;4934;50.852;8.098;2023-08-06T04:58:50;14.20;99.90
9790;DHT22;4934;50.852;8.098;2023-08-06T05:01:16;14.20;99.90
9790;DHT22;4934;50.852;8.098;2023-08-06T05:03:41;14.30;99.90
9790;DHT22;4934;50.852;8.098;2023-08-06T05:06:07;14.30;99.90
9790;DHT22;4934;50.852;8.098;2023-08-06T05:08:32;14.30;99.90
9790;DHT22;4934;50.852;8.098;2023-08-06T05:10:58;14.30;99.90
9790;DHT22;4934;50.852;8.098;2023-08-06T05:13:23;14.40;99.90
9790;DHT22;4934;50.852;8.098;2023-08-06T05:15:50;14.50;99.90
9790;DHT22;4934;50.852;8.098;2023-08-06T05:18:16;14.60;99.90
9790;DHT22;4934;50.852;8.098;2023-08-06T05:20:42;14.70;99.90
9790;DHT22;4934;50.852;8.098;2023-08-06T05:23:07;14.80;99.90
9790;DHT22;4934;50.852;8.098;2023-08-06T05:25:36;14.90;99.90
9790;DHT22;4934;50.852;8.098;2023-08-06T05:28:02;14.90;99.90
9790;DHT22;4934;50.852;8.098;2023-08-06T05:30:27;14.90;99.90
9790;DHT22;4934;50.852;8.098;2023-08-06T05:32:53;15.00;99.90
9790;DHT22;4934;50.852;8.098;2023-08-06T05:35:18;14.90;99.90
9790;DHT22;4934;50.852;8.098;2023-08-06T05:37:44;14.90;99.90
9790;DHT22;4934;50.852;8.098;2023-08-06T05:40:09;15.00;99.90
9790;DHT22;4934;50.852;8.098;2023-08-06T05:42:35;15.00;99.90
9790;DHT22;4934;50.852;8.098;2023-08-06T05:45:00;15.10;99.90
9790;DHT22;4934;50.852;8.098;2023-08-06T05:47:26;15.20;99.90
9790;DHT22;4934;50.852;8.098;2023-08-06T05:49:51;15.20;99.90
9790;DHT22;4934;50.852;8.098;2023-08-06T05:52:17;15.20;99.90
9790;DHT22;4934;50.852;8.098;2023-08-06T05:54:42;15.10;99.90
9790;DHT22;4934;50.852;8.098;2023-08-06T05:57:08;15.20;99.90
9790;DHT22;4934;50.852;8.098;2023-08-06T05:59:33;15.30;99.90
9790;DHT22;4934;50.852;8.098;2023-08-06T06:01:59;15.30;99.90
9790;DHT22;4934;50.852;8.098;2023-08-06T06:04:25;15.40;99.90
9790;DHT22;4934;50.852;8.098;2023-08-06T06:06:50;15.40;99.90
9790;DHT22;4934;50.852;8.098;2023-08-06T06:09:15;15.40;99.90
9790;DHT22;4934;50.852;8.098;2023-08-06T06:11:41;15.50;99.90
9790;DHT22;4934;50.852;8.098;2023-08-06T06:14:07;15.50;99.90
9790;DHT22;4934;50.852;8.098;2023-08-06T06:16:32;15.60;99.90
9790;DHT22;4934;50.852;8.098;2023-08-06T06:18:58;15.80;99.90
9790;DHT22;4934;50.852;8.098;2023-08-06T06:21:23;15.90;99.90
9790;DHT22;4934;50.852;8.098;2023-08-06T06:23:49;16.10;99.90
9790;DHT22;4934;50.852;8.098;2023-08-06T06:26:19;16.20;99.90
9790;DHT22;4934;50.852;8.098;2023-08-06T06:28:45;16.30;99.90
9790;DHT22;4934;50.852;8.098;2023-08-06T06:31:10;16.60;99.90
9790;DHT22;4934;50.852;8.098;2023-08-06T06:33:36;16.70;99.90
9790;DHT22;4934;50.852;8.098;2023-08-06T06:36:01;16.90;99.90
9790;DHT22;4934;50.852;8.098;2023-08-06T06:38:33;17.10;99.90
9790;DHT22;4934;50.852;8.098;2023-08-06T06:40:58;17.40;99.90
9790;DHT22;4934;50.852;8.098;2023-08-06T06:43:24;17.40;99.90
9790;DHT22;4934;50.852;8.098;2023-08-06T06:45:55;17.60;99.90
9790;DHT22;4934;50.852;8.098;2023-08-06T06:48:22;17.70;99.90
9790;DHT22;4934;50.852;8.098;2023-08-06T06:50:47;17.90;99.90
9790;DHT22;4934;50.852;8.098;2023-08-06T06:53:13;17.90;99.90
9790;DHT22;4934;50.852;8.098;2023-08-06T06:55:39;18.00;99.90
9790;DHT22;4934;50.852;8.098;2023-08-06T06:58:04;18.00;99.90
9790;DHT22;4934;50.852;8.098;2023-08-06T07:00:30;18.10;99.90
9790;DHT22;4934;50.852;8.098;2023-08-06T07:02:55;18.00;99.90
9790;DHT22;4934;50.852;8.098;2023-08-06T07:05:21;18.00;99.90
9790;DHT22;4934;50.852;8.098;2023-08-06T07:07:46;18.00;99.90
9790;DHT22;4934;50.852;8.098;2023-08-06T07:10:12;17.90;99.90
9790;DHT22;4934;50.852;8.098;2023-08-06T07:12:37;18.00;99.90
9790;DHT22;4934;50.852;8.098;2023-08-06T07:15:06;18.00;99.90
9790;DHT22;4934;50.852;8.098;2023-08-06T07:17:31;18.00;99.90
9790;DHT22;4934;50.852;8.098;2023-08-06T07:19:57;17.90;99.90
9790;DHT22;4934;50.852;8.098;2023-08-06T07:22:22;17.90;99.90
9790;DHT22;4934;50.852;8.098;2023-08-06T07:24:48;17.90;99.90
9790;DHT22;4934;50.852;8.098;2023-08-06T07:27:13;17.80;99.90
9790;DHT22;4934;50.852;8.098;2023-08-06T07:29:39;17.80;99.90
9790;DHT22;4934;50.852;8.098;2023-08-06T07:32:05;17.80;99.90
9790;DHT22;4934;50.852;8.098;2023-08-06T07:34:31;17.70;99.90
9790;DHT22;4934;50.852;8.098;2023-08-06T07:36:57;17.50;99.90
9790;DHT22;4934;50.852;8.098;2023-08-06T07:39:22;17.30;99.90
9790;DHT22;4934;50.852;8.098;2023-08-06T07:41:48;17.30;99.90
9790;DHT22;4934;50.852;8.098;2023-08-06T07:44:14;17.60;99.90
9790;DHT22;4934;50.852;8.098;2023-08-06T07:46:40;17.80;99.90
9790;DHT22;4934;50.852;8.098;2023-08-06T07:49:05;17.80;99.90
9790;DHT22;4934;50.852;8.098;2023-08-06T07:51:31;17.90;99.90
9790;DHT22;4934;50.852;8.098;2023-08-06T07:53:56;17.90;99.90
9790;DHT22;4934;50.852;8.098;2023-08-06T07:56:22;17.90;99.90
9790;DHT22;4934;50.852;8.098;2023-08-06T07:58:47;18.00;99.90
9790;DHT22;4934;50.852;8.098;2023-08-06T08:01:13;17.90;99.90
9790;DHT22;4934;50.852;8.098;2023-08-06T08:03:38;17.80;99.90
9790;DHT22;4934;50.852;8.098;2023-08-06T08:06:04;17.60;99.90
9790;DHT22;4934;50.852;8.098;2023-08-06T08:08:29;17.60;99.90
9790;DHT22;4934;50.852;8.098;2023-08-06T08:10:55;17.60;99.90
9790;DHT22;4934;50.852;8.098;2023-08-06T08:13:21;17.70;99.90
9790;DHT22;4934;50.852;8.098;2023-08-06T08:15:46;17.70;99.90
9790;DHT22;4934;50.852;8.098;2023-08-06T08:18:12;17.80;99.90
9790;DHT22;4934;50.852;8.098;2023-08-06T08:20:37;17.80;99.90
9790;DHT22;4934;50.852;8.098;2023-08-06T08:23:03;17.80;99.90
9790;DHT22;4934;50.852;8.098;2023-08-06T08:25:28;18.00;99.90
9790;DHT22;4934;50.852;8.098;2023-08-06T08:27:54;17.90;99.90
9790;DHT22;4934;50.852;8.098;2023-08-06T08:30:20;17.90;99.90
9790;DHT22;4934;50.852;8.098;2023-08-06T08:32:46;17.90;99.90
9790;DHT22;4934;50.852;8.098;2023-08-06T08:35:12;18.10;99.90
9790;DHT22;4934;50.852;8.098;2023-08-06T08:37:41;18.30;99.90
9790;DHT22;4934;50.852;8.098;2023-08-06T08:40:06;18.40;99.90
9790;DHT22;4934;50.852;8.098;2023-08-06T08:42:32;18.60;99.90
9790;DHT22;4934;50.852;8.098;2023-08-06T08:44:58;18.60;99.90
9790;DHT22;4934;50.852;8.098;2023-08-06T08:47:24;18.40;99.90
9790;DHT22;4934;50.852;8.098;2023-08-06T08:49:49;18.20;99.90
9790;DHT22;4934;50.852;8.098;2023-08-06T08:52:17;18.10;99.90
9790;DHT22;4934;50.852;8.098;2023-08-06T08:54:43;18.00;99.90
9790;DHT22;4934;50.852;8.098;2023-08-06T08:57:09;17.80;99.90
9790;DHT22;4934;50.852;8.098;2023-08-06T08:59:35;17.90;99.90
9790;DHT22;4934;50.852;8.098;2023-08-06T09:02:01;17.60;99.90
9790;DHT22;4934;50.852;8.098;2023-08-06T09:04:27;17.60;99.90
9790;DHT22;4934;50.852;8.098;2023-08-06T09:06:54;17.70;99.90
9790;DHT22;4934;50.852;8.098;2023-08-06T09:09:28;17.70;99.90
9790;DHT22;4934;50.852;8.098;2023-08-06T09:11:55;17.90;99.90
9790;DHT22;4934;50.852;8.098;2023-08-06T09:14:24;18.10;99.90
9790;DHT22;4934;50.852;8.098;2023-08-06T09:16:50;18.30;99.90
9790;DHT22;4934;50.852;8.098;2023-08-06T09:19:16;18.40;99.90
9790;DHT22;4934;50.852;8.098;2023-08-06T09:21:44;18.30;99.90
9790;DHT22;4934;50.852;8.098;2023-08-06T09:24:13;18.50;99.90
9790;DHT22;4934;50.852;8.098;2023-08-06T09:26:40;18.40;99.90
9790;DHT22;4934;50.852;8.098;2023-08-06T09:29:06;18.40;99.90
9790;DHT22;4934;50.852;8.098;2023-08-06T09:31:42;18.30;99.90
9790;DHT22;4934;50.852;8.098;2023-08-06T09:34:22;18.40;99.90
9790;DHT22;4934;50.852;8.098;2023-08-06T09:36:49;18.30;99.90
9790;DHT22;4934;50.852;8.098;2023-08-06T09:39:16;18.60;99.90
9790;DHT22;4934;50.852;8.098;2023-08-06T09:41:42;18.80;99.90
9790;DHT22;4934;50.852;8.098;2023-08-06T09:44:14;19.00;99.90
9790;DHT22;4934;50.852;8.098;2023-08-06T09:46:41;19.00;99.90
9790;DHT22;4934;50.852;8.098;2023-08-06T09:49:06;19.30;99.90
9790;DHT22;4934;50.852;8.098;2023-08-06T09:51:34;19.40;99.90
9790;DHT22;4934;50.852;8.098;2023-08-06T09:54:00;19.20;99.90
9790;DHT22;4934;50.852;8.098;2023-08-06T09:56:26;19.20;99.90
9790;DHT22;4934;50.852;8.098;2023-08-06T09:58:52;18.90;99.90
9790;DHT22;4934;50.852;8.098;2023-08-06T10:01:18;18.80;99.90
9790;DHT22;4934;50.852;8.098;2023-08-06T10:03:44;18.80;99.90
9790;DHT22;4934;50.852;8.098;2023-08-06T10:06:09;18.80;99.90
9790;DHT22;4934;50.852;8.098;2023-08-06T10:08:36;18.90;99.90
9790;DHT22;4934;50.852;8.098;2023-08-06T10:11:02;18.90;99.90
9790;DHT22;4934;50.852;8.098;2023-08-06T10:13:30;18.50;99.90
9790;DHT22;4934;50.852;8.098;2023-08-06T10:15:55;18.60;99.90
9790;DHT22;4934;50.852;8.098;2023-08-06T10:18:21;18.40;99.90
9790;DHT22;4934;50.852;8.098;2023-08-06T10:20:47;18.50;99.90
9790;DHT22;4934;50.852;8.098;2023-08-06T10:23:13;18.30;99.90
9790;DHT22;4934;50.852;8.098;2023-08-06T10:25:40;18.10;99.90
9790;DHT22;4934;50.852;8.098;2023-08-06T10:28:07;18.70;99.90
9790;DHT22;4934;50.852;8.098;2023-08-06T10:30:33;19.00;99.90
9790;DHT22;4934;50.852;8.098;2023-08-06T10:33:00;18.70;99.90
9790;DHT22;4934;50.852;8.098;2023-08-06T10:35:35;18.40;99.90
9790;DHT22;4934;50.852;8.098;2023-08-06T10:40:31;18.90;99.90
9790;DHT22;4934;50.852;8.098;2023-08-06T10:43:00;19.20;99.90
9790;DHT22;4934;50.852;8.098;2023-08-06T10:45:26;19.20;99.90
9790;DHT22;4934;50.852;8.098;2023-08-06T10:47:54;19.40;99.90
9790;DHT22;4934;50.852;8.098;2023-08-06T10:50:20;19.50;99.90
9790;DHT22;4934;50.852;8.098;2023-08-06T10:52:46;19.60;99.90
9790;DHT22;4934;50.852;8.098;2023-08-06T10:55:12;19.40;99.90
9790;DHT22;4934;50.852;8.098;2023-08-06T10:57:38;19.30;99.90
9790;DHT22;4934;50.852;8.098;2023-08-06T11:00:04;19.20;99.90
9790;DHT22;4934;50.852;8.098;2023-08-06T11:02:33;19.00;99.90
9790;DHT22;4934;50.852;8.098;2023-08-06T11:04:58;18.80;99.90
9790;DHT22;4934;50.852;8.098;2023-08-06T11:07:29;18.70;99.90
9790;DHT22;4934;50.852;8.098;2023-08-06T11:10:00;18.60;99.90
9790;DHT22;4934;50.852;8.098;2023-08-06T11:12:26;18.30;99.90
9790;DHT22;4934;50.852;8.098;2023-08-06T11:14:53;18.60;99.90
9790;DHT22;4934;50.852;8.098;2023-08-06T11:17:19;19.00;99.90
9790;DHT22;4934;50.852;8.098;2023-08-06T11:19:44;19.50;99.90
9790;DHT22;4934;50.852;8.098;2023-08-06T11:22:10;19.70;99.90
9790;DHT22;4934;50.852;8.098;2023-08-06T11:24:37;20.10;99.90
9790;DHT22;4934;50.852;8.098;2023-08-06T11:27:02;20.50;99.90
9790;DHT22;4934;50.852;8.098;2023-08-06T11:29:37;20.70;99.90
9790;DHT22;4934;50.852;8.098;2023-08-06T11:32:03;20.80;99.90
9790;DHT22;4934;50.852;8.098;2023-08-06T11:34:29;20.60;99.90
9790;DHT22;4934;50.852;8.098;2023-08-06T11:36:56;20.30;99.90
9790;DHT22;4934;50.852;8.098;2023-08-06T11:39:22;20.20;99.90
9790;DHT22;4934;50.852;8.098;2023-08-06T11:41:47;20.20;99.90
9790;DHT22;4934;50.852;8.098;2023-08-06T11:44:13;19.90;99.90
9790;DHT22;4934;50.852;8.098;2023-08-06T11:46:55;19.60;99.90
9790;DHT22;4934;50.852;8.098;2023-08-06T11:49:48;19.10;99.90
9790;DHT22;4934;50.852;8.098;2023-08-06T11:52:21;18.90;99.90
9790;DHT22;4934;50.852;8.098;2023-08-06T11:57:28;19.10;99.90
9790;DHT22;4934;50.852;8.098;2023-08-06T11:59:54;19.40;99.90
9790;DHT22;4934;50.852;8.098;2023-08-06T12:02:21;19.80;99.90
9790;DHT22;4934;50.852;8.098;2023-08-06T12:04:58;19.90;99.90
9790;DHT22;4934;50.852;8.098;2023-08-06T12:07:35;19.90;99.90
9790;DHT22;4934;50.852;8.098;2023-08-06T12:10:02;19.80;99.90
9790;DHT22;4934;50.852;8.098;2023-08-06T12:12:28;19.30;99.90
9790;DHT22;4934;50.852;8.098;2023-08-06T12:14:54;19.10;99.90
9790;DHT22;4934;50.852;8.098;2023-08-06T12:17:20;18.50;99.90
9790;DHT22;4934;50.852;8.098;2023-08-06T12:19:45;18.10;99.90
9790;DHT22;4934;50.852;8.098;2023-08-06T12:22:14;17.00;99.90
9790;DHT22;4934;50.852;8.098;2023-08-06T12:24:40;16.50;99.90
9790;DHT22;4934;50.852;8.098;2023-08-06T12:27:06;16.00;99.90
9790;DHT22;4934;50.852;8.098;2023-08-06T12:29:33;15.60;99.90
9790;DHT22;4934;50.852;8.098;2023-08-06T12:31:59;15.30;99.90
9790;DHT22;4934;50.852;8.098;2023-08-06T12:34:25;14.90;99.90
9790;DHT22;4934;50.852;8.098;2023-08-06T12:36:50;14.80;99.90
9790;DHT22;4934;50.852;8.098;2023-08-06T12:39:16;14.40;99.90
9790;DHT22;4934;50.852;8.098;2023-08-06T12:41:42;14.20;99.90
9790;DHT22;4934;50.852;8.098;2023-08-06T12:44:09;14.30;99.90
9790;DHT22;4934;50.852;8.098;2023-08-06T12:49:18;14.40;99.90
9790;DHT22;4934;50.852;8.098;2023-08-06T12:51:49;14.30;99.90
9790;DHT22;4934;50.852;8.098;2023-08-06T12:54:17;14.20;99.90
9790;DHT22;4934;50.852;8.098;2023-08-06T12:56:44;14.10;99.90
9790;DHT22;4934;50.852;8.098;2023-08-06T12:59:09;14.10;99.90
9790;DHT22;4934;50.852;8.098;2023-08-06T13:01:35;14.10;99.90
9790;DHT22;4934;50.852;8.098;2023-08-06T13:04:00;14.00;99.90
9790;DHT22;4934;50.852;8.098;2023-08-06T13:06:26;14.00;99.90
9790;DHT22;4934;50.852;8.098;2023-08-06T13:08:51;13.90;99.90
9790;DHT22;4934;50.852;8.098;2023-08-06T13:11:17;14.00;99.90
9790;DHT22;4934;50.852;8.098;2023-08-06T13:13:42;14.00;99.90
9790;DHT22;4934;50.852;8.098;2023-08-06T13:16:08;14.00;99.90
9790;DHT22;4934;50.852;8.098;2023-08-06T13:18:33;13.80;99.90
9790;DHT22;4934;50.852;8.098;2023-08-06T13:20:59;13.80;99.90
9790;DHT22;4934;50.852;8.098;2023-08-06T13:23:25;13.80;99.90
9790;DHT22;4934;50.852;8.098;2023-08-06T13:25:51;13.90;99.90
9790;DHT22;4934;50.852;8.098;2023-08-06T13:28:16;14.00;99.90
9790;DHT22;4934;50.852;8.098;2023-08-06T13:30:42;14.00;99.90
9790;DHT22;4934;50.852;8.098;2023-08-06T13:33:08;14.00;99.90
9790;DHT22;4934;50.852;8.098;2023-08-06T13:35:33;14.00;99.90
9790;DHT22;4934;50.852;8.098;2023-08-06T13:37:59;14.00;99.90
9790;DHT22;4934;50.852;8.098;2023-08-06T13:40:24;14.00;99.90
9790;DHT22;4934;50.852;8.098;2023-08-06T13:42:50;14.10;99.90
9790;DHT22;4934;50.852;8.098;2023-08-06T13:45:15;14.00;99.90
9790;DHT22;4934;50.852;8.098;2023-08-06T13:47:41;14.00;99.90
9790;DHT22;4934;50.852;8.098;2023-08-06T13:50:07;14.10;99.90
9790;DHT22;4934;50.852;8.098;2023-08-06T13:52:33;14.20;99.90
9790;DHT22;4934;50.852;8.098;2023-08-06T13:55:00;14.20;99.90
9790;DHT22;4934;50.852;8.098;2023-08-06T13:57:26;14.30;99.90
9790;DHT22;4934;50.852;8.098;2023-08-06T13:59:51;14.30;99.90
9790;DHT22;4934;50.852;8.098;2023-08-06T14:02:17;14.40;99.90
9790;DHT22;4934;50.852;8.098;2023-08-06T14:04:42;14.30;99.90
9790;DHT22;4934;50.852;8.098;2023-08-06T14:07:07;14.30;99.90
9790;DHT22;4934;50.852;8.098;2023-08-06T14:09:33;14.30;99.90
9790;DHT22;4934;50.852;8.098;2023-08-06T14:11:59;14.20;99.90
9790;DHT22;4934;50.852;8.098;2023-08-06T14:14:25;14.30;99.90
9790;DHT22;4934;50.852;8.098;2023-08-06T14:16:52;14.10;99.90
9790;DHT22;4934;50.852;8.098;2023-08-06T14:19:18;14.10;99.90
9790;DHT22;4934;50.852;8.098;2023-08-06T14:21:43;14.10;99.90
9790;DHT22;4934;50.852;8.098;2023-08-06T14:24:09;14.10;99.90
9790;DHT22;4934;50.852;8.098;2023-08-06T14:26:34;14.00;99.90
9790;DHT22;4934;50.852;8.098;2023-08-06T14:29:01;14.00;99.90
9790;DHT22;4934;50.852;8.098;2023-08-06T14:31:27;14.00;99.90
9790;DHT22;4934;50.852;8.098;2023-08-06T14:33:52;14.00;99.90
9790;DHT22;4934;50.852;8.098;2023-08-06T14:36:18;14.00;99.90
9790;DHT22;4934;50.852;8.098;2023-08-06T14:38:44;14.10;99.90
9790;DHT22;4934;50.852;8.098;2023-08-06T14:41:09;14.00;99.90
9790;DHT22;4934;50.852;8.098;2023-08-06T14:43:35;14.00;99.90
9790;DHT22;4934;50.852;8.098;2023-08-06T14:46:07;14.10;99.90
9790;DHT22;4934;50.852;8.098;2023-08-06T14:48:32;14.10;99.90
9790;DHT22;4934;50.852;8.098;2023-08-06T14:50:58;14.00;99.90
9790;DHT22;4934;50.852;8.098;2023-08-06T14:53:24;13.90;99.90
9790;DHT22;4934;50.852;8.098;2023-08-06T14:55:49;13.70;99.90
9790;DHT22;4934;50.852;8.098;2023-08-06T14:58:15;13.80;99.90
9790;DHT22;4934;50.852;8.098;2023-08-06T15:00:41;13.90;99.90
9790;DHT22;4934;50.852;8.098;2023-08-06T15:03:06;13.90;99.90
9790;DHT22;4934;50.852;8.098;2023-08-06T15:05:32;13.90;99.90
9790;DHT22;4934;50.852;8.098;2023-08-06T15:07:57;13.90;99.90
9790;DHT22;4934;50.852;8.098;2023-08-06T15:10:23;14.00;99.90
9790;DHT22;4934;50.852;8.098;2023-08-06T15:12:48;13.90;99.90
9790;DHT22;4934;50.852;8.098;2023-08-06T15:15:14;13.90;99.90
9790;DHT22;4934;50.852;8.098;2023-08-06T15:17:39;14.00;99.90
9790;DHT22;4934;50.852;8.098;2023-08-06T15:20:05;14.00;99.90
9790;DHT22;4934;50.852;8.098;2023-08-06T15:22:31;14.00;99.90
9790;DHT22;4934;50.852;8.098;2023-08-06T15:24:59;13.90;99.90
9790;DHT22;4934;50.852;8.098;2023-08-06T15:27:25;13.90;99.90
9790;DHT22;4934;50.852;8.098;2023-08-06T15:29:50;13.90;99.90
9790;DHT22;4934;50.852;8.098;2023-08-06T15:32:15;14.10;99.90
9790;DHT22;4934;50.852;8.098;2023-08-06T15:34:41;14.10;99.90
9790;DHT22;4934;50.852;8.098;2023-08-06T15:37:07;14.10;99.90
9790;DHT22;4934;50.852;8.098;2023-08-06T15:39:33;14.10;99.90
9790;DHT22;4934;50.852;8.098;2023-08-06T15:41:58;14.00;99.90
9790;DHT22;4934;50.852;8.098;2023-08-06T15:44:24;14.10;99.90
9790;DHT22;4934;50.852;8.098;2023-08-06T15:46:50;14.10;99.90
9790;DHT22;4934;50.852;8.098;2023-08-06T15:49:15;14.10;99.90
9790;DHT22;4934;50.852;8.098;2023-08-06T15:51:41;14.10;99.90
9790;DHT22;4934;50.852;8.098;2023-08-06T15:54:06;14.20;99.90
9790;DHT22;4934;50.852;8.098;2023-08-06T15:56:32;14.20;99.90
9790;DHT22;4934;50.852;8.098;2023-08-06T15:59:05;14.20;99.90
9790;DHT22;4934;50.852;8.098;2023-08-06T16:01:43;14.10;99.90
9790;DHT22;4934;50.852;8.098;2023-08-06T16:04:09;14.10;99.90
9790;DHT22;4934;50.852;8.098;2023-08-06T16:06:34;13.90;99.90
9790;DHT22;4934;50.852;8.098;2023-08-06T16:09:00;14.00;99.90
9790;DHT22;4934;50.852;8.098;2023-08-06T16:11:25;13.90;99.90